createdAt,value
2018-04-11T00:00:13.367Z,88.20
2018-04-11T00:02:41.627Z,88.50
2018-04-11T00:05:09.763Z,88.40
2018-04-11T00:07:37.914Z,88.60
2018-04-11T00:10:06.066Z,88.90
2018-04-11T00:12:34.163Z,89.20
2018-04-11T00:15:02.295Z,89.00
2018-04-11T00:17:31.165Z,89.00
2018-04-11T00:19:59.284Z,89.00
2018-04-11T00:22:27.580Z,88.70
2018-04-11T00:24:57.049Z,89.20
2018-04-11T00:27:25.169Z,89.10
2018-04-11T00:29:53.296Z,88.70
2018-04-11T00:32:21.578Z,88.50
2018-04-11T00:34:49.913Z,88.60
2018-04-11T00:37:18.044Z,88.30
2018-04-11T00:39:46.240Z,88.30
2018-04-11T00:42:14.456Z,88.50
2018-04-11T00:44:42.573Z,88.50
2018-04-11T00:47:10.762Z,88.30
2018-04-11T00:49:38.948Z,88.60
2018-04-11T00:52:07.066Z,88.50
2018-04-11T00:54:35.232Z,88.70
2018-04-11T00:57:03.384Z,89.10
2018-04-11T00:59:32.482Z,89.40
2018-04-11T01:02:01.372Z,90.10
2018-04-11T01:04:30.257Z,89.80
2018-04-11T01:06:59.805Z,90.00
2018-04-11T01:09:28.003Z,89.90
2018-04-11T01:11:56.104Z,89.90
2018-04-11T01:14:24.221Z,89.80
2018-04-11T01:16:52.379Z,90.00
2018-04-11T01:19:20.513Z,89.60
2018-04-11T01:21:50.131Z,90.10
2018-04-11T01:24:18.267Z,90.10
2018-04-11T01:26:53.541Z,90.10
2018-04-11T01:29:21.682Z,90.30
2018-04-11T01:31:49.798Z,90.40
2018-04-11T01:34:18.708Z,90.60
2018-04-11T01:36:46.875Z,90.50
2018-04-11T01:39:15.766Z,90.70
2018-04-11T01:41:44.721Z,90.70
2018-04-11T01:44:12.867Z,90.70
2018-04-11T01:46:41.834Z,90.90
2018-04-11T01:49:09.935Z,90.90
2018-04-11T01:51:38.082Z,90.80
2018-04-11T01:54:07.420Z,90.80
2018-04-11T01:56:35.618Z,90.80
2018-04-11T01:59:04.559Z,91.20
2018-04-11T02:01:32.687Z,91.20
2018-04-11T02:04:01.644Z,91.70
2018-04-11T02:06:29.839Z,91.70
2018-04-11T02:08:59.027Z,92.00
2018-04-11T02:11:27.187Z,92.10
2018-04-11T02:13:55.431Z,92.50
2018-04-11T02:16:23.613Z,92.50
2018-04-11T02:18:51.835Z,92.60
2018-04-11T02:21:20.166Z,92.70
2018-04-11T02:23:48.305Z,92.80
2018-04-11T02:26:16.566Z,92.90
2018-04-11T02:28:49.040Z,92.90
2018-04-11T02:31:17.141Z,93.00
2018-04-11T02:33:46.234Z,93.00
2018-04-11T02:36:24.748Z,93.20
2018-04-11T02:38:53.900Z,93.20
2018-04-11T02:41:22.025Z,93.40
2018-04-11T02:43:53.016Z,93.60
2018-04-11T02:46:23.730Z,93.60
2018-04-11T02:48:57.530Z,93.60
2018-04-11T02:51:28.583Z,93.70
2018-04-11T02:54:01.893Z,93.90
2018-04-11T02:56:30.901Z,93.90
2018-04-11T02:59:04.030Z,94.00
2018-04-11T03:01:32.826Z,94.00
2018-04-11T03:04:04.503Z,94.20
2018-04-11T03:06:32.962Z,94.20
2018-04-11T03:09:01.125Z,94.40
2018-04-11T03:11:29.294Z,94.20
2018-04-11T03:13:58.180Z,95.00
2018-04-11T03:16:26.360Z,95.00
2018-04-11T03:18:54.766Z,95.10
2018-04-11T03:21:22.931Z,95.30
2018-04-11T03:23:51.198Z,95.20
2018-04-11T03:26:19.494Z,95.30
2018-04-11T03:28:47.691Z,95.20
2018-04-11T03:31:15.801Z,95.50
2018-04-11T03:33:44.150Z,95.60
2018-04-11T03:36:12.254Z,95.90
2018-04-11T03:38:41.274Z,97.00
2018-04-11T03:41:09.506Z,96.60
2018-04-11T03:43:37.847Z,96.50
2018-04-11T03:46:05.938Z,96.40
2018-04-11T03:48:34.085Z,96.50
2018-04-11T03:51:02.229Z,96.60
2018-04-11T03:53:31.103Z,96.50
2018-04-11T03:56:00.016Z,97.00
2018-04-11T03:58:28.158Z,96.60
2018-04-11T04:00:56.279Z,96.50
2018-04-11T04:03:24.419Z,96.40
2018-04-11T04:05:52.543Z,96.30
2018-04-11T04:08:20.686Z,96.30
2018-04-11T04:10:48.889Z,96.70
2018-04-11T04:13:17.030Z,96.60
2018-04-11T04:15:57.366Z,96.70
2018-04-11T04:18:51.995Z,96.20
2018-04-11T04:21:20.142Z,96.20
2018-04-11T04:23:49.062Z,96.30
2018-04-11T04:26:17.359Z,96.20
2018-04-11T04:28:45.544Z,96.40
2018-04-11T04:31:13.852Z,96.70
2018-04-11T04:33:42.014Z,96.90
2018-04-11T04:36:10.263Z,96.90
2018-04-11T04:38:38.587Z,97.10
2018-04-11T04:41:07.466Z,96.90
2018-04-11T04:43:36.378Z,97.30
2018-04-11T04:46:05.290Z,97.10
2018-04-11T04:48:34.234Z,97.10
2018-04-11T04:51:02.419Z,97.10
2018-04-11T04:53:30.679Z,97.20
2018-04-11T04:55:58.958Z,97.50
2018-04-11T04:58:27.101Z,97.70
2018-04-11T05:00:55.207Z,97.70
2018-04-11T05:03:23.336Z,97.70
2018-04-11T05:05:51.462Z,97.80
2018-04-11T05:08:20.368Z,97.50
2018-04-11T05:10:48.718Z,97.50
2018-04-11T05:13:16.888Z,97.50
2018-04-11T05:15:45.016Z,97.20
2018-04-11T05:18:13.137Z,96.80
2018-04-11T05:20:42.797Z,95.60
2018-04-11T05:23:11.084Z,95.50
2018-04-11T05:25:39.305Z,95.30
2018-04-11T05:28:08.284Z,95.00
2018-04-11T05:30:37.572Z,94.90
2018-04-11T05:33:05.889Z,94.80
2018-04-11T05:35:34.810Z,94.70
2018-04-11T05:38:02.948Z,94.70
2018-04-11T05:40:31.846Z,94.40
2018-04-11T05:43:00.901Z,94.40
2018-04-11T05:45:29.262Z,94.40
2018-04-11T05:47:57.427Z,94.50
2018-04-11T05:50:26.320Z,94.20
2018-04-11T05:52:54.452Z,94.20
2018-04-11T05:55:23.343Z,93.60
2018-04-11T05:57:52.370Z,93.30
2018-04-11T06:00:20.606Z,93.20
2018-04-11T06:02:49.489Z,92.80
2018-04-11T06:05:17.648Z,92.80
2018-04-11T06:07:46.363Z,92.70
2018-04-11T06:10:15.351Z,92.60
2018-04-11T06:12:44.388Z,92.60
2018-04-11T06:15:12.598Z,92.50
2018-04-11T06:17:40.879Z,92.60
2018-04-11T06:20:09.036Z,92.60
2018-04-11T06:22:37.147Z,92.50
2018-04-11T06:25:06.040Z,92.20
2018-04-11T06:27:35.084Z,92.30
2018-04-11T06:30:03.460Z,92.30
2018-04-11T06:32:31.804Z,92.30
2018-04-11T06:34:59.965Z,92.10
2018-04-11T06:37:28.840Z,91.60
2018-04-11T06:39:56.955Z,91.60
2018-04-11T06:42:25.580Z,91.20
2018-04-11T06:44:53.763Z,91.10
2018-04-11T06:47:22.034Z,90.70
2018-04-11T06:49:50.976Z,90.30
2018-04-11T06:52:19.203Z,90.30
2018-04-11T06:54:48.012Z,90.10
2018-04-11T06:57:16.892Z,89.60
2018-04-11T06:59:45.877Z,89.10
2018-04-11T07:02:13.986Z,89.60
2018-04-11T07:04:42.103Z,88.20
2018-04-11T07:07:10.207Z,87.70
2018-04-11T07:09:39.274Z,87.90
2018-04-11T07:12:07.451Z,87.90
2018-04-11T07:14:35.733Z,88.40
2018-04-11T07:17:04.020Z,89.40
2018-04-11T07:19:32.241Z,89.10
2018-04-11T07:22:00.367Z,88.40
2018-04-11T07:24:28.502Z,88.10
2018-04-11T07:26:56.647Z,87.80
2018-04-11T07:29:24.931Z,88.00
2018-04-11T07:31:53.778Z,88.20
2018-04-11T07:34:21.925Z,87.60
2018-04-11T07:36:50.021Z,87.50
2018-04-11T07:39:18.914Z,86.80
2018-04-11T07:41:47.057Z,86.20
2018-04-11T07:44:15.180Z,85.60
2018-04-11T07:46:44.061Z,85.70
2018-04-11T07:49:12.955Z,84.10
2018-04-11T07:51:41.830Z,82.80
2018-04-11T07:54:09.947Z,82.80
2018-04-11T07:56:38.090Z,82.50
2018-04-11T07:59:07.801Z,83.00
2018-04-11T08:01:36.702Z,81.60
2018-04-11T08:04:05.607Z,81.90
2018-04-11T08:06:33.765Z,81.90
2018-04-11T08:09:02.659Z,81.30
2018-04-11T08:11:31.750Z,81.20
2018-04-11T08:14:00.623Z,81.00
2018-04-11T08:16:28.763Z,81.00
2018-04-11T08:18:57.760Z,78.60
2018-04-11T08:21:25.847Z,78.60
2018-04-11T08:23:53.477Z,76.80
2018-04-11T08:26:22.471Z,75.50
2018-04-11T08:28:50.578Z,75.40
2018-04-11T08:31:18.895Z,74.50
2018-04-11T08:33:47.025Z,73.60
2018-04-11T08:36:15.126Z,72.80
2018-04-11T08:38:43.996Z,72.00
2018-04-11T08:41:12.317Z,72.00
2018-04-11T08:43:40.489Z,71.80
2018-04-11T08:46:08.659Z,71.00
2018-04-11T08:48:37.605Z,70.00
2018-04-11T08:51:05.712Z,70.00
2018-04-11T08:53:34.637Z,69.40
2018-04-11T08:56:04.275Z,68.90
2018-04-11T08:58:32.453Z,68.90
2018-04-11T09:01:00.756Z,67.60
2018-04-11T09:03:29.610Z,68.40
2018-04-11T09:05:57.718Z,68.80
2018-04-11T09:08:26.718Z,67.70
2018-04-11T09:10:54.875Z,67.70
2018-04-11T09:13:23.099Z,67.80
2018-04-11T09:15:51.206Z,68.30
2018-04-11T09:18:19.408Z,69.00
2018-04-11T09:20:47.555Z,69.80
2018-04-11T09:23:15.895Z,68.30
2018-04-11T09:25:44.151Z,68.30
2018-04-11T09:28:12.263Z,67.00
2018-04-11T09:30:41.312Z,66.20
2018-04-11T09:33:09.482Z,66.20
2018-04-11T09:35:38.342Z,64.90
2018-04-11T09:38:06.450Z,64.80
2018-04-11T09:40:35.288Z,66.80
2018-04-11T09:43:03.512Z,64.80
2018-04-11T09:45:32.399Z,67.00
2018-04-11T09:48:01.431Z,68.40
2018-04-11T09:50:33.657Z,68.30
2018-04-11T09:53:01.926Z,66.40
2018-04-11T09:55:30.054Z,67.00
2018-04-11T09:57:58.164Z,65.90
2018-04-11T10:00:27.218Z,66.70
2018-04-11T10:03:01.056Z,66.70
2018-04-11T10:05:29.199Z,66.80
2018-04-11T10:07:57.322Z,67.20
2018-04-11T10:10:26.221Z,66.70
2018-04-11T10:12:55.225Z,66.50
2018-04-11T10:15:23.326Z,66.50
2018-04-11T10:17:51.540Z,67.30
2018-04-11T10:20:20.709Z,66.90
2018-04-11T10:22:48.890Z,65.90
2018-04-11T10:25:17.151Z,66.10
2018-04-11T10:27:45.329Z,66.90
2018-04-11T10:30:13.446Z,66.60
2018-04-11T10:32:42.313Z,68.70
2018-04-11T10:35:11.282Z,70.00
2018-04-11T10:37:39.388Z,69.90
2018-04-11T10:40:07.519Z,70.00
2018-04-11T10:42:36.581Z,70.60
2018-04-11T10:45:04.682Z,69.80
2018-04-11T10:47:33.087Z,68.30
2018-04-11T10:50:01.341Z,68.20
2018-04-11T10:52:29.554Z,66.30
2018-04-11T10:54:57.753Z,64.30
2018-04-11T10:57:26.641Z,63.90
2018-04-11T10:59:55.503Z,63.40
2018-04-11T11:02:23.703Z,63.30
2018-04-11T11:04:52.671Z,63.50
2018-04-11T11:07:20.783Z,63.50
2018-04-11T11:09:48.880Z,62.20
2018-04-11T11:12:17.013Z,63.40
2018-04-11T11:14:45.871Z,66.00
2018-04-11T11:17:14.164Z,66.00
2018-04-11T11:19:55.364Z,65.00
2018-04-11T11:22:24.216Z,66.00
2018-04-11T11:24:52.476Z,65.90
2018-04-11T11:27:20.671Z,66.00
2018-04-11T11:29:48.792Z,65.10
2018-04-11T11:32:17.028Z,64.10
2018-04-11T11:34:45.155Z,64.30
2018-04-11T11:37:13.274Z,63.00
2018-04-11T11:39:41.377Z,61.70
2018-04-11T11:42:09.549Z,61.30
2018-04-11T11:44:37.822Z,61.80
2018-04-11T11:47:06.871Z,61.90
2018-04-11T11:49:35.100Z,61.00
2018-04-11T11:52:03.241Z,60.30
2018-04-11T11:54:31.430Z,61.90
2018-04-11T11:57:00.441Z,64.80
2018-04-11T11:59:28.539Z,64.70
2018-04-11T12:01:56.786Z,64.90
2018-04-11T12:04:24.963Z,64.70
2018-04-11T12:06:53.055Z,64.40
2018-04-11T12:09:21.171Z,64.20
2018-04-11T12:11:49.384Z,64.80
2018-04-11T12:14:18.242Z,63.70
2018-04-11T12:16:46.374Z,63.80
2018-04-11T12:19:14.484Z,64.50
2018-04-11T12:21:42.619Z,64.80
2018-04-11T12:24:10.718Z,66.50
2018-04-11T12:26:39.555Z,67.20
2018-04-11T12:29:07.659Z,68.50
2018-04-11T12:31:35.765Z,67.10
2018-04-11T12:34:03.914Z,70.20
2018-04-11T12:36:32.048Z,70.80
2018-04-11T12:39:00.142Z,71.20
2018-04-11T12:41:28.268Z,71.50
2018-04-11T12:43:57.173Z,74.90
2018-04-11T12:46:25.286Z,74.70
2018-04-11T12:48:53.424Z,74.60
2018-04-11T12:51:21.532Z,75.80
2018-04-11T12:53:49.635Z,76.60
2018-04-11T12:56:17.838Z,79.80
2018-04-11T12:58:46.087Z,79.50
2018-04-11T13:01:14.290Z,79.70
2018-04-11T13:03:42.632Z,79.00
2018-04-11T13:06:11.534Z,85.20
2018-04-11T13:08:40.030Z,85.10
2018-04-11T13:11:09.026Z,83.50
2018-04-11T13:13:37.897Z,80.40
2018-04-11T13:16:06.158Z,80.30
2018-04-11T13:18:34.281Z,80.70
2018-04-11T13:21:02.398Z,77.90
2018-04-11T13:23:30.493Z,79.80
2018-04-11T13:25:59.373Z,77.30
2018-04-11T13:28:27.552Z,76.90
2018-04-11T13:30:57.221Z,69.60
2018-04-11T13:33:26.180Z,67.50
2018-04-11T13:35:54.401Z,67.30
2018-04-11T13:38:22.574Z,65.70
2018-04-11T13:40:50.719Z,65.80
2018-04-11T13:43:18.816Z,66.60
2018-04-11T13:45:46.918Z,67.60
2018-04-11T13:48:15.057Z,65.00
2018-04-11T13:50:43.263Z,65.30
2018-04-11T13:53:11.887Z,66.70
2018-04-11T13:55:40.041Z,67.70
2018-04-11T13:58:08.912Z,69.40
2018-04-11T14:00:37.191Z,69.20
2018-04-11T14:03:06.853Z,72.20
2018-04-11T14:05:34.959Z,72.20
2018-04-11T14:08:03.090Z,72.80
2018-04-11T14:10:31.227Z,72.80
2018-04-11T14:13:00.143Z,74.50
2018-04-11T14:15:28.284Z,74.50
2018-04-11T14:17:57.010Z,74.80
2018-04-11T14:20:25.247Z,75.10
2018-04-11T14:22:53.383Z,75.60
2018-04-11T14:25:21.631Z,75.50
2018-04-11T14:27:50.483Z,73.60
2018-04-11T14:30:18.592Z,73.60
2018-04-11T14:32:46.732Z,73.30
2018-04-11T14:35:14.835Z,74.00
2018-04-11T14:37:42.940Z,73.40
2018-04-11T14:40:11.189Z,72.50
2018-04-11T14:42:39.364Z,71.30
2018-04-11T14:45:07.512Z,72.40
2018-04-11T14:47:36.417Z,72.20
2018-04-11T14:50:04.522Z,72.10
2018-04-11T14:52:32.818Z,71.50
2018-04-11T14:55:00.947Z,69.90
2018-04-11T14:57:29.189Z,69.90
2018-04-11T14:59:58.279Z,69.40
2018-04-11T15:02:27.306Z,69.40
2018-04-11T15:04:55.437Z,69.40
2018-04-11T15:07:23.727Z,69.20
2018-04-11T15:09:51.929Z,69.40
2018-04-11T15:12:20.810Z,69.00
2018-04-11T15:14:49.679Z,68.60
2018-04-11T15:17:17.800Z,68.60
2018-04-11T15:19:46.226Z,68.70
2018-04-11T15:22:14.338Z,68.70
2018-04-11T15:24:42.616Z,68.80
2018-04-11T15:27:10.846Z,68.90
2018-04-11T15:29:39.080Z,68.60
2018-04-11T15:32:08.167Z,69.00
2018-04-11T15:34:36.405Z,69.70
2018-04-11T15:37:04.655Z,68.80
2018-04-11T15:39:32.975Z,68.30
2018-04-11T15:42:01.858Z,66.50
2018-04-11T15:44:29.953Z,66.50
2018-04-11T15:46:58.201Z,66.10
2018-04-11T15:49:27.075Z,67.40
2018-04-11T15:51:55.357Z,67.70
2018-04-11T15:54:23.477Z,68.10
2018-04-11T15:56:51.725Z,67.40
2018-04-11T15:59:20.585Z,67.00
2018-04-11T16:01:48.743Z,66.90
2018-04-11T16:04:16.850Z,68.50
2018-04-11T16:06:45.855Z,68.60
2018-04-11T16:09:14.750Z,69.10
2018-04-11T16:11:42.935Z,69.00
2018-04-11T16:14:11.045Z,68.50
2018-04-11T16:16:39.374Z,67.60
2018-04-11T16:19:08.269Z,68.40
2018-04-11T16:21:36.491Z,67.60
2018-04-11T16:24:04.646Z,68.50
2018-04-11T16:26:32.805Z,70.00
2018-04-11T16:29:00.910Z,70.90
2018-04-11T16:31:29.254Z,71.30
2018-04-11T16:33:57.487Z,72.20
2018-04-11T16:36:25.593Z,73.20
2018-04-11T16:38:53.852Z,72.90
2018-04-11T16:41:22.725Z,70.30
2018-04-11T16:43:51.042Z,70.30
2018-04-11T16:46:19.926Z,67.20
2018-04-11T16:48:48.051Z,64.60
2018-04-11T16:51:16.151Z,61.50
2018-04-11T16:53:45.118Z,62.10
2018-04-11T16:56:13.234Z,62.10
2018-04-11T16:58:43.036Z,64.60
2018-04-11T17:01:11.952Z,64.80
2018-04-11T17:03:40.097Z,64.80
2018-04-11T17:06:09.476Z,62.80
2018-04-11T17:08:37.699Z,62.80
2018-04-11T17:11:06.197Z,61.50
2018-04-11T17:13:34.330Z,62.50
2018-04-11T17:16:03.807Z,65.20
2018-04-11T17:18:32.104Z,65.10
2018-04-11T17:21:12.866Z,65.90
2018-04-11T17:23:52.884Z,65.80
2018-04-11T17:26:32.914Z,66.40
2018-04-11T17:29:12.735Z,66.80
2018-04-11T17:31:40.865Z,67.00
2018-04-11T17:34:08.978Z,68.40
2018-04-11T17:36:37.285Z,68.40
2018-04-11T17:39:05.605Z,69.40
2018-04-11T17:41:33.707Z,69.90
2018-04-11T17:44:01.921Z,71.10
2018-04-11T17:46:30.126Z,72.00
2018-04-11T17:48:58.404Z,73.10
2018-04-11T17:51:28.018Z,75.50
2018-04-11T17:53:56.158Z,75.50
2018-04-11T17:56:24.287Z,76.40
2018-04-11T17:58:52.427Z,77.50
2018-04-11T18:01:20.917Z,77.90
2018-04-11T18:03:49.173Z,78.50
2018-04-11T18:06:17.567Z,79.20
2018-04-11T18:08:45.809Z,80.10
2018-04-11T18:11:13.942Z,79.80
2018-04-11T18:13:42.816Z,80.80
2018-04-11T18:16:11.121Z,80.70
2018-04-11T18:18:39.548Z,81.50
2018-04-11T18:21:07.811Z,82.40
2018-04-11T18:23:35.983Z,82.70
2018-04-11T18:26:04.115Z,83.40
2018-04-11T18:28:32.259Z,83.90
2018-04-11T18:31:01.208Z,84.70
2018-04-11T18:33:29.993Z,84.70
2018-04-11T18:35:58.097Z,85.10
2018-04-11T18:38:26.302Z,85.70
2018-04-11T18:40:55.203Z,86.60
2018-04-11T18:43:24.105Z,86.80
2018-04-11T18:45:53.810Z,87.10
2018-04-11T18:48:21.997Z,87.10
2018-04-11T18:50:50.188Z,87.10
2018-04-11T18:53:18.363Z,87.20
2018-04-11T18:55:46.613Z,87.40
2018-04-11T18:58:14.742Z,87.20
2018-04-11T19:00:43.537Z,87.50
2018-04-11T19:03:12.439Z,88.10
2018-04-11T19:05:41.322Z,89.00
2018-04-11T19:08:09.462Z,88.40
2018-04-11T19:10:37.573Z,88.70
2018-04-11T19:13:06.863Z,88.80
2018-04-11T19:15:34.959Z,88.60
2018-04-11T19:18:03.852Z,88.90
2018-04-11T19:20:32.738Z,89.10
2018-04-11T19:23:01.721Z,89.90
2018-04-11T19:25:30.733Z,90.10
2018-04-11T19:27:59.715Z,90.20
2018-04-11T19:30:28.646Z,90.10
2018-04-11T19:32:56.770Z,90.10
2018-04-11T19:35:26.607Z,90.30
2018-04-11T19:37:54.901Z,90.30
2018-04-11T19:40:23.014Z,90.30
2018-04-11T19:42:51.183Z,90.60
2018-04-11T19:45:19.485Z,91.00
2018-04-11T19:47:49.118Z,91.80
2018-04-11T19:50:17.228Z,92.00
2018-04-11T19:52:45.526Z,91.90
2018-04-11T19:55:13.655Z,92.30
2018-04-11T19:57:41.856Z,92.60
2018-04-11T20:00:10.190Z,92.60
2018-04-11T20:02:38.377Z,92.80
2018-04-11T20:05:06.740Z,92.80
2018-04-11T20:07:35.898Z,93.30
2018-04-11T20:10:04.286Z,93.20
2018-04-11T20:12:33.351Z,93.50
2018-04-11T20:15:01.643Z,93.50
2018-04-11T20:17:29.830Z,93.70
2018-04-11T20:19:58.128Z,93.90
2018-04-11T20:22:26.526Z,93.90
2018-04-11T20:24:54.648Z,94.10
2018-04-11T20:27:22.856Z,94.20
2018-04-11T20:29:52.116Z,94.20
2018-04-11T20:32:20.242Z,94.20
2018-04-11T20:34:48.532Z,94.40
2018-04-11T20:37:16.859Z,94.60
2018-04-11T20:39:46.595Z,94.80
2018-04-11T20:42:15.525Z,94.90
2018-04-11T20:44:43.698Z,94.90
2018-04-11T20:47:12.083Z,95.00
2018-04-11T20:49:40.744Z,95.10
2018-04-11T20:52:08.953Z,95.10
2018-04-11T20:54:37.111Z,95.20
2018-04-11T20:57:05.245Z,95.10
2018-04-11T20:59:33.396Z,95.10
2018-04-11T21:02:01.609Z,95.10
2018-04-11T21:04:30.378Z,95.20
2018-04-11T21:06:59.295Z,95.30
2018-04-11T21:09:27.920Z,95.30
2018-04-11T21:11:56.101Z,95.60
2018-04-11T21:14:24.381Z,95.80
2018-04-11T21:16:52.559Z,95.90
2018-04-11T21:19:21.913Z,95.70
2018-04-11T21:21:50.173Z,95.70
2018-04-11T21:24:18.994Z,95.60
2018-04-11T21:26:47.192Z,96.20
2018-04-11T21:29:15.385Z,96.40
2018-04-11T21:31:43.509Z,96.60
2018-04-11T21:34:11.633Z,96.50
2018-04-11T21:36:39.773Z,96.60
2018-04-11T21:39:07.902Z,96.60
2018-04-11T21:41:36.031Z,96.60
2018-04-11T21:44:04.187Z,96.90
2018-04-11T21:46:32.306Z,96.80
2018-04-11T21:49:01.185Z,97.00
2018-04-11T21:51:30.108Z,97.20
2018-04-11T21:53:58.212Z,97.20
2018-04-11T21:56:26.345Z,97.00
2018-04-11T21:58:54.591Z,97.10
2018-04-11T22:01:23.487Z,97.40
2018-04-11T22:03:52.376Z,97.20
2018-04-11T22:06:20.534Z,97.20
2018-04-11T22:08:48.713Z,97.10
2018-04-11T22:11:16.871Z,97.10
2018-04-11T22:13:44.990Z,97.10
2018-04-11T22:16:13.096Z,97.20
2018-04-11T22:18:41.199Z,97.10
2018-04-11T22:21:09.405Z,97.10
2018-04-11T22:23:37.515Z,97.50
2018-04-11T22:26:05.655Z,97.70
2018-04-11T22:28:33.935Z,97.60
2018-04-11T22:31:02.072Z,97.50
2018-04-11T22:33:30.482Z,97.50
2018-04-11T22:35:58.617Z,97.50
2018-04-11T22:38:26.760Z,97.60
2018-04-11T22:40:55.864Z,97.50
2018-04-11T22:43:23.996Z,97.50
2018-04-11T22:45:52.858Z,97.70
2018-04-11T22:48:21.033Z,97.70
2018-04-11T22:50:49.162Z,97.70
2018-04-11T22:53:17.613Z,97.80
2018-04-11T22:55:45.840Z,97.80
2018-04-11T22:58:13.974Z,97.80
2018-04-11T23:00:42.523Z,98.00
2018-04-11T23:03:11.396Z,98.40
2018-04-11T23:05:39.551Z,98.00
2018-04-11T23:08:07.799Z,98.00
2018-04-11T23:10:36.064Z,97.90
2018-04-11T23:13:04.741Z,97.90
2018-04-11T23:15:33.607Z,98.00
2018-04-11T23:18:01.817Z,98.00
2018-04-11T23:20:30.127Z,98.10
2018-04-11T23:22:58.252Z,98.30
2018-04-11T23:25:27.201Z,98.30
2018-04-11T23:27:56.233Z,98.20
2018-04-11T23:30:25.138Z,98.30
2018-04-11T23:32:54.036Z,98.30
2018-04-11T23:35:22.401Z,98.30
2018-04-11T23:37:51.290Z,98.30
2018-04-11T23:40:20.182Z,98.30
2018-04-11T23:42:49.137Z,98.40
2018-04-11T23:45:18.783Z,98.40
2018-04-11T23:47:47.672Z,98.50
2018-04-11T23:50:16.579Z,98.80
2018-04-11T23:52:44.713Z,98.80
2018-04-11T23:55:12.827Z,98.80
2018-04-11T23:57:41.231Z,98.80
